sensor_id;sensor_type;location;lat;lon;timestamp;pressure;altitude;pressure_sealevel;temperature
34023;BMP280;20673;48.980;8.138;2023-11-18T00:01:31;101076.84;;;7.48
34023;BMP280;20673;48.980;8.138;2023-11-18T00:03:59;101072.26;;;7.49
34023;BMP280;20673;48.980;8.138;2023-11-18T00:06:25;101075.12;;;7.48
34023;BMP280;20673;48.980;8.138;2023-11-18T00:08:52;101080.68;;;7.50
34023;BMP280;20673;48.980;8.138;2023-11-18T00:11:18;101079.36;;;7.54
34023;BMP280;20673;48.980;8.138;2023-11-18T00:13:44;101076.48;;;7.53
34023;BMP280;20673;48.980;8.138;2023-11-18T00:16:10;101075.59;;;7.53
34023;BMP280;20673;48.980;8.138;2023-11-18T00:18:40;101078.28;;;7.52
34023;BMP280;20673;48.980;8.138;2023-11-18T00:21:07;101076.15;;;7.53
34023;BMP280;20673;48.980;8.138;2023-11-18T00:23:34;101077.84;;;7.50
34023;BMP280;20673;48.980;8.138;2023-11-18T00:26:00;101070.58;;;7.45
34023;BMP280;20673;48.980;8.138;2023-11-18T00:28:28;101067.26;;;7.41
34023;BMP280;20673;48.980;8.138;2023-11-18T00:30:54;101063.42;;;7.40
34023;BMP280;20673;48.980;8.138;2023-11-18T00:33:20;101067.78;;;7.37
34023;BMP280;20673;48.980;8.138;2023-11-18T00:35:46;101065.19;;;7.33
34023;BMP280;20673;48.980;8.138;2023-11-18T00:38:12;101062.50;;;7.28
34023;BMP280;20673;48.980;8.138;2023-11-18T00:40:38;101061.61;;;7.25
34023;BMP280;20673;48.980;8.138;2023-11-18T00:43:04;101058.87;;;7.22
34023;BMP280;20673;48.980;8.138;2023-11-18T00:45:30;101058.03;;;7.21
34023;BMP280;20673;48.980;8.138;2023-11-18T00:47:56;101051.37;;;7.18
34023;BMP280;20673;48.980;8.138;2023-11-18T00:50:22;101051.59;;;7.23
34023;BMP280;20673;48.980;8.138;2023-11-18T00:52:48;101052.17;;;7.28
34023;BMP280;20673;48.980;8.138;2023-11-18T00:55:15;101056.36;;;7.29
34023;BMP280;20673;48.980;8.138;2023-11-18T00:57:45;101056.36;;;7.29
34023;BMP280;20673;48.980;8.138;2023-11-18T01:00:15;101057.40;;;7.25
34023;BMP280;20673;48.980;8.138;2023-11-18T01:02:52;101062.70;;;7.27
34023;BMP280;20673;48.980;8.138;2023-11-18T01:05:21;101064.97;;;7.26
34023;BMP280;20673;48.980;8.138;2023-11-18T01:07:47;101068.75;;;7.23
34023;BMP280;20673;48.980;8.138;2023-11-18T01:10:14;101073.61;;;7.20
34023;BMP280;20673;48.980;8.138;2023-11-18T01:12:40;101077.77;;;7.13
34023;BMP280;20673;48.980;8.138;2023-11-18T01:15:08;101087.92;;;7.09
34023;BMP280;20673;48.980;8.138;2023-11-18T01:17:36;101091.59;;;7.06
34023;BMP280;20673;48.980;8.138;2023-11-18T01:20:03;101091.48;;;7.04
34023;BMP280;20673;48.980;8.138;2023-11-18T01:22:31;101094.04;;;7.02
34023;BMP280;20673;48.980;8.138;2023-11-18T01:24:59;101088.70;;;6.99
34023;BMP280;20673;48.980;8.138;2023-11-18T01:27:25;101084.95;;;6.96
34023;BMP280;20673;48.980;8.138;2023-11-18T01:29:51;101085.90;;;6.97
34023;BMP280;20673;48.980;8.138;2023-11-18T01:32:17;101075.84;;;6.96
34023;BMP280;20673;48.980;8.138;2023-11-18T01:34:44;101080.84;;;6.93
34023;BMP280;20673;48.980;8.138;2023-11-18T01:37:12;101073.82;;;6.91
34023;BMP280;20673;48.980;8.138;2023-11-18T01:39:38;101070.82;;;6.86
34023;BMP280;20673;48.980;8.138;2023-11-18T01:42:05;101069.90;;;6.80
34023;BMP280;20673;48.980;8.138;2023-11-18T01:44:31;101068.61;;;6.74
34023;BMP280;20673;48.980;8.138;2023-11-18T01:47:01;101071.81;;;6.70
34023;BMP280;20673;48.980;8.138;2023-11-18T01:49:29;101076.68;;;6.64
34023;BMP280;20673;48.980;8.138;2023-11-18T01:51:55;101080.79;;;6.58
34023;BMP280;20673;48.980;8.138;2023-11-18T01:54:23;101076.95;;;6.56
34023;BMP280;20673;48.980;8.138;2023-11-18T01:56:49;101088.06;;;6.52
34023;BMP280;20673;48.980;8.138;2023-11-18T01:59:16;101083.01;;;6.50
34023;BMP280;20673;48.980;8.138;2023-11-18T02:01:53;101088.00;;;6.45
34023;BMP280;20673;48.980;8.138;2023-11-18T02:04:20;101086.47;;;6.38
34023;BMP280;20673;48.980;8.138;2023-11-18T02:06:49;101087.44;;;6.35
34023;BMP280;20673;48.980;8.138;2023-11-18T02:09:17;101091.36;;;6.29
34023;BMP280;20673;48.980;8.138;2023-11-18T02:11:58;101089.95;;;6.24
34023;BMP280;20673;48.980;8.138;2023-11-18T02:14:26;101090.43;;;6.16
34023;BMP280;20673;48.980;8.138;2023-11-18T02:16:55;101095.29;;;6.13
34023;BMP280;20673;48.980;8.138;2023-11-18T02:19:24;101101.58;;;6.14
34023;BMP280;20673;48.980;8.138;2023-11-18T02:21:52;101099.65;;;6.12
34023;BMP280;20673;48.980;8.138;2023-11-18T02:24:31;101102.09;;;6.13
34023;BMP280;20673;48.980;8.138;2023-11-18T02:27:00;101097.14;;;6.12
34023;BMP280;20673;48.980;8.138;2023-11-18T02:29:36;101097.98;;;6.08
34023;BMP280;20673;48.980;8.138;2023-11-18T02:32:33;101092.78;;;6.05
34023;BMP280;20673;48.980;8.138;2023-11-18T02:35:14;101091.96;;;6.03
34023;BMP280;20673;48.980;8.138;2023-11-18T02:37:44;101084.61;;;6.03
34023;BMP280;20673;48.980;8.138;2023-11-18T02:40:19;101086.43;;;5.98
34023;BMP280;20673;48.980;8.138;2023-11-18T02:42:45;101089.90;;;5.93
34023;BMP280;20673;48.980;8.138;2023-11-18T02:45:15;101089.98;;;5.88
34023;BMP280;20673;48.980;8.138;2023-11-18T02:47:44;101089.79;;;5.84
34023;BMP280;20673;48.980;8.138;2023-11-18T02:50:11;101089.31;;;5.83
34023;BMP280;20673;48.980;8.138;2023-11-18T02:52:42;101086.53;;;5.84
34023;BMP280;20673;48.980;8.138;2023-11-18T02:55:09;101085.04;;;5.87
34023;BMP280;20673;48.980;8.138;2023-11-18T02:57:36;101084.98;;;5.89
34023;BMP280;20673;48.980;8.138;2023-11-18T03:00:06;101078.22;;;5.94
34023;BMP280;20673;48.980;8.138;2023-11-18T03:02:34;101079.53;;;6.07
34023;BMP280;20673;48.980;8.138;2023-11-18T03:05:00;101073.81;;;6.23
34023;BMP280;20673;48.980;8.138;2023-11-18T03:07:27;101069.40;;;6.29
34023;BMP280;20673;48.980;8.138;2023-11-18T03:09:53;101073.96;;;6.37
34023;BMP280;20673;48.980;8.138;2023-11-18T03:12:21;101066.40;;;6.41
34023;BMP280;20673;48.980;8.138;2023-11-18T03:14:47;101067.73;;;6.46
34023;BMP280;20673;48.980;8.138;2023-11-18T03:17:14;101064.30;;;6.48
34023;BMP280;20673;48.980;8.138;2023-11-18T03:19:40;101074.93;;;6.50
34023;BMP280;20673;48.980;8.138;2023-11-18T03:22:07;101085.22;;;6.51
34023;BMP280;20673;48.980;8.138;2023-11-18T03:24:33;101086.25;;;6.52
34023;BMP280;20673;48.980;8.138;2023-11-18T03:26:59;101086.39;;;6.53
34023;BMP280;20673;48.980;8.138;2023-11-18T03:29:25;101088.15;;;6.54
34023;BMP280;20673;48.980;8.138;2023-11-18T03:31:51;101096.15;;;6.55
34023;BMP280;20673;48.980;8.138;2023-11-18T03:34:18;101100.81;;;6.57
34023;BMP280;20673;48.980;8.138;2023-11-18T03:36:46;101093.06;;;6.58
34023;BMP280;20673;48.980;8.138;2023-11-18T03:39:13;101094.51;;;6.62
34023;BMP280;20673;48.980;8.138;2023-11-18T03:41:42;101085.14;;;6.63
34023;BMP280;20673;48.980;8.138;2023-11-18T03:44:12;101079.36;;;6.63
34023;BMP280;20673;48.980;8.138;2023-11-18T03:46:38;101078.29;;;6.65
34023;BMP280;20673;48.980;8.138;2023-11-18T03:49:04;101079.40;;;6.64
34023;BMP280;20673;48.980;8.138;2023-11-18T03:51:30;101079.18;;;6.70
34023;BMP280;20673;48.980;8.138;2023-11-18T03:53:56;101085.43;;;6.68
34023;BMP280;20673;48.980;8.138;2023-11-18T03:56:22;101082.73;;;6.70
34023;BMP280;20673;48.980;8.138;2023-11-18T03:58:48;101080.36;;;6.74
34023;BMP280;20673;48.980;8.138;2023-11-18T04:01:22;101084.76;;;6.74
34023;BMP280;20673;48.980;8.138;2023-11-18T04:03:49;101083.20;;;6.76
34023;BMP280;20673;48.980;8.138;2023-11-18T04:06:16;101081.48;;;6.77
34023;BMP280;20673;48.980;8.138;2023-11-18T04:08:46;101085.49;;;6.76
34023;BMP280;20673;48.980;8.138;2023-11-18T04:11:13;101095.07;;;6.79
34023;BMP280;20673;48.980;8.138;2023-11-18T04:13:41;101100.21;;;6.78
34023;BMP280;20673;48.980;8.138;2023-11-18T04:16:15;101097.67;;;6.80
34023;BMP280;20673;48.980;8.138;2023-11-18T04:18:44;101093.01;;;6.81
34023;BMP280;20673;48.980;8.138;2023-11-18T04:21:12;101094.05;;;6.82
34023;BMP280;20673;48.980;8.138;2023-11-18T04:23:41;101092.67;;;6.85
34023;BMP280;20673;48.980;8.138;2023-11-18T04:26:08;101083.22;;;6.88
34023;BMP280;20673;48.980;8.138;2023-11-18T04:28:35;101087.93;;;6.91
34023;BMP280;20673;48.980;8.138;2023-11-18T04:31:03;101087.86;;;6.91
34023;BMP280;20673;48.980;8.138;2023-11-18T04:33:31;101085.47;;;6.95
34023;BMP280;20673;48.980;8.138;2023-11-18T04:35:57;101083.77;;;6.96
34023;BMP280;20673;48.980;8.138;2023-11-18T04:38:24;101074.15;;;6.99
34023;BMP280;20673;48.980;8.138;2023-11-18T04:40:55;101078.90;;;7.03
34023;BMP280;20673;48.980;8.138;2023-11-18T04:43:22;101080.22;;;7.05
34023;BMP280;20673;48.980;8.138;2023-11-18T04:45:49;101079.03;;;7.04
34023;BMP280;20673;48.980;8.138;2023-11-18T04:48:15;101084.54;;;7.04
34023;BMP280;20673;48.980;8.138;2023-11-18T04:50:42;101080.84;;;7.04
34023;BMP280;20673;48.980;8.138;2023-11-18T04:53:08;101074.36;;;7.05
34023;BMP280;20673;48.980;8.138;2023-11-18T04:55:37;101067.78;;;7.06
34023;BMP280;20673;48.980;8.138;2023-11-18T04:58:04;101071.39;;;7.05
34023;BMP280;20673;48.980;8.138;2023-11-18T05:00:33;101070.36;;;7.06
34023;BMP280;20673;48.980;8.138;2023-11-18T05:02:59;101061.65;;;7.05
34023;BMP280;20673;48.980;8.138;2023-11-18T05:05:25;101062.83;;;7.07
34023;BMP280;20673;48.980;8.138;2023-11-18T05:07:51;101063.24;;;7.02
34023;BMP280;20673;48.980;8.138;2023-11-18T05:10:17;101070.31;;;7.03
34023;BMP280;20673;48.980;8.138;2023-11-18T05:12:44;101076.67;;;7.03
34023;BMP280;20673;48.980;8.138;2023-11-18T05:15:10;101072.95;;;7.05
34023;BMP280;20673;48.980;8.138;2023-11-18T05:17:37;101071.93;;;7.04
34023;BMP280;20673;48.980;8.138;2023-11-18T05:20:04;101068.72;;;7.02
34023;BMP280;20673;48.980;8.138;2023-11-18T05:22:30;101068.51;;;7.03
34023;BMP280;20673;48.980;8.138;2023-11-18T05:24:57;101066.83;;;6.97
34023;BMP280;20673;48.980;8.138;2023-11-18T05:27:23;101068.65;;;6.92
34023;BMP280;20673;48.980;8.138;2023-11-18T05:29:50;101068.51;;;6.84
34023;BMP280;20673;48.980;8.138;2023-11-18T05:32:18;101069.79;;;6.81
34023;BMP280;20673;48.980;8.138;2023-11-18T05:34:46;101067.47;;;6.77
34023;BMP280;20673;48.980;8.138;2023-11-18T05:37:14;101062.43;;;6.76
34023;BMP280;20673;48.980;8.138;2023-11-18T05:39:42;101062.61;;;6.71
34023;BMP280;20673;48.980;8.138;2023-11-18T05:42:10;101061.48;;;6.68
34023;BMP280;20673;48.980;8.138;2023-11-18T05:44:37;101067.25;;;6.66
34023;BMP280;20673;48.980;8.138;2023-11-18T05:47:06;101068.32;;;6.62
34023;BMP280;20673;48.980;8.138;2023-11-18T05:49:35;101071.42;;;6.63
34023;BMP280;20673;48.980;8.138;2023-11-18T05:52:02;101063.64;;;6.61
34023;BMP280;20673;48.980;8.138;2023-11-18T05:54:28;101060.61;;;6.58
34023;BMP280;20673;48.980;8.138;2023-11-18T05:56:54;101060.22;;;6.53
34023;BMP280;20673;48.980;8.138;2023-11-18T05:59:20;101056.29;;;6.49
34023;BMP280;20673;48.980;8.138;2023-11-18T06:01:47;101060.04;;;6.47
34023;BMP280;20673;48.980;8.138;2023-11-18T06:04:14;101064.99;;;6.39
34023;BMP280;20673;48.980;8.138;2023-11-18T06:06:40;101063.64;;;6.33
34023;BMP280;20673;48.980;8.138;2023-11-18T06:09:06;101063.00;;;6.30
34023;BMP280;20673;48.980;8.138;2023-11-18T06:11:34;101064.81;;;6.28
34023;BMP280;20673;48.980;8.138;2023-11-18T06:14:01;101069.34;;;6.25
34023;BMP280;20673;48.980;8.138;2023-11-18T06:16:27;101068.62;;;6.25
34023;BMP280;20673;48.980;8.138;2023-11-18T06:18:56;101069.37;;;6.22
34023;BMP280;20673;48.980;8.138;2023-11-18T06:21:24;101068.29;;;6.22
34023;BMP280;20673;48.980;8.138;2023-11-18T06:23:52;101068.24;;;6.22
34023;BMP280;20673;48.980;8.138;2023-11-18T06:26:20;101071.98;;;6.21
34023;BMP280;20673;48.980;8.138;2023-11-18T06:28:48;101071.07;;;6.23
34023;BMP280;20673;48.980;8.138;2023-11-18T06:31:16;101076.24;;;6.22
34023;BMP280;20673;48.980;8.138;2023-11-18T06:33:45;101066.32;;;6.22
34023;BMP280;20673;48.980;8.138;2023-11-18T06:36:21;101067.58;;;6.24
34023;BMP280;20673;48.980;8.138;2023-11-18T06:38:52;101068.14;;;6.19
34023;BMP280;20673;48.980;8.138;2023-11-18T06:41:22;101060.04;;;6.22
34023;BMP280;20673;48.980;8.138;2023-11-18T06:44:02;101048.79;;;6.20
34023;BMP280;20673;48.980;8.138;2023-11-18T06:46:39;101048.95;;;6.23
34023;BMP280;20673;48.980;8.138;2023-11-18T06:49:06;101054.53;;;6.20
34023;BMP280;20673;48.980;8.138;2023-11-18T06:51:36;101051.90;;;6.19
34023;BMP280;20673;48.980;8.138;2023-11-18T06:54:06;101061.49;;;6.21
34023;BMP280;20673;48.980;8.138;2023-11-18T06:56:37;101064.67;;;6.25
34023;BMP280;20673;48.980;8.138;2023-11-18T06:59:05;101057.53;;;6.20
34023;BMP280;20673;48.980;8.138;2023-11-18T07:01:34;101068.25;;;6.24
34023;BMP280;20673;48.980;8.138;2023-11-18T07:04:02;101077.21;;;6.25
34023;BMP280;20673;48.980;8.138;2023-11-18T07:06:28;101081.15;;;6.25
34023;BMP280;20673;48.980;8.138;2023-11-18T07:08:55;101078.50;;;6.26
34023;BMP280;20673;48.980;8.138;2023-11-18T07:11:26;101069.31;;;6.26
34023;BMP280;20673;48.980;8.138;2023-11-18T07:13:53;101071.51;;;6.27
34023;BMP280;20673;48.980;8.138;2023-11-18T07:16:25;101070.08;;;6.26
34023;BMP280;20673;48.980;8.138;2023-11-18T07:18:52;101070.33;;;6.28
34023;BMP280;20673;48.980;8.138;2023-11-18T07:21:18;101080.88;;;6.28
34023;BMP280;20673;48.980;8.138;2023-11-18T07:23:44;101091.89;;;6.23
34023;BMP280;20673;48.980;8.138;2023-11-18T07:26:10;101089.78;;;6.26
34023;BMP280;20673;48.980;8.138;2023-11-18T07:28:37;101091.25;;;6.27
34023;BMP280;20673;48.980;8.138;2023-11-18T07:31:03;101081.93;;;6.29
34023;BMP280;20673;48.980;8.138;2023-11-18T07:33:31;101073.87;;;6.28
34023;BMP280;20673;48.980;8.138;2023-11-18T07:36:00;101065.73;;;6.27
34023;BMP280;20673;48.980;8.138;2023-11-18T07:38:28;101062.11;;;6.27
34023;BMP280;20673;48.980;8.138;2023-11-18T07:40:54;101060.78;;;6.27
34023;BMP280;20673;48.980;8.138;2023-11-18T07:43:23;101057.62;;;6.25
34023;BMP280;20673;48.980;8.138;2023-11-18T07:45:49;101059.18;;;6.23
34023;BMP280;20673;48.980;8.138;2023-11-18T07:48:17;101064.03;;;6.27
34023;BMP280;20673;48.980;8.138;2023-11-18T07:50:44;101063.15;;;6.26
34023;BMP280;20673;48.980;8.138;2023-11-18T07:53:10;101077.81;;;6.32
34023;BMP280;20673;48.980;8.138;2023-11-18T07:55:37;101079.96;;;6.32
34023;BMP280;20673;48.980;8.138;2023-11-18T07:58:08;101084.45;;;6.35
34023;BMP280;20673;48.980;8.138;2023-11-18T08:00:40;101079.40;;;6.35
34023;BMP280;20673;48.980;8.138;2023-11-18T08:03:07;101078.33;;;6.38
34023;BMP280;20673;48.980;8.138;2023-11-18T08:05:35;101079.33;;;6.42
34023;BMP280;20673;48.980;8.138;2023-11-18T08:08:01;101082.25;;;6.46
34023;BMP280;20673;48.980;8.138;2023-11-18T08:10:27;101089.45;;;6.50
34023;BMP280;20673;48.980;8.138;2023-11-18T08:12:54;101090.11;;;6.53
34023;BMP280;20673;48.980;8.138;2023-11-18T08:15:20;101082.84;;;6.53
34023;BMP280;20673;48.980;8.138;2023-11-18T08:17:46;101067.08;;;6.58
34023;BMP280;20673;48.980;8.138;2023-11-18T08:20:12;101065.80;;;6.63
34023;BMP280;20673;48.980;8.138;2023-11-18T08:22:41;101056.36;;;6.71
34023;BMP280;20673;48.980;8.138;2023-11-18T08:25:12;101063.08;;;6.77
34023;BMP280;20673;48.980;8.138;2023-11-18T08:27:40;101068.87;;;6.79
34023;BMP280;20673;48.980;8.138;2023-11-18T08:30:08;101063.53;;;6.88
34023;BMP280;20673;48.980;8.138;2023-11-18T08:32:38;101051.90;;;6.96
34023;BMP280;20673;48.980;8.138;2023-11-18T08:35:06;101050.78;;;7.01
34023;BMP280;20673;48.980;8.138;2023-11-18T08:37:34;101045.25;;;7.12
34023;BMP280;20673;48.980;8.138;2023-11-18T08:40:07;101042.36;;;7.20
34023;BMP280;20673;48.980;8.138;2023-11-18T08:42:36;101033.86;;;7.23
34023;BMP280;20673;48.980;8.138;2023-11-18T08:45:02;101030.58;;;7.30
34023;BMP280;20673;48.980;8.138;2023-11-18T08:47:29;101026.87;;;7.25
34023;BMP280;20673;48.980;8.138;2023-11-18T08:49:56;101020.22;;;7.28
34023;BMP280;20673;48.980;8.138;2023-11-18T08:52:22;101024.93;;;7.30
34023;BMP280;20673;48.980;8.138;2023-11-18T08:54:50;101021.90;;;7.34
34023;BMP280;20673;48.980;8.138;2023-11-18T08:57:35;101027.73;;;7.39
34023;BMP280;20673;48.980;8.138;2023-11-18T09:00:03;101035.47;;;7.46
34023;BMP280;20673;48.980;8.138;2023-11-18T09:02:31;101038.61;;;7.51
34023;BMP280;20673;48.980;8.138;2023-11-18T09:04:59;101034.96;;;7.61
34023;BMP280;20673;48.980;8.138;2023-11-18T09:07:25;101037.59;;;7.66
34023;BMP280;20673;48.980;8.138;2023-11-18T09:09:51;101040.11;;;7.71
34023;BMP280;20673;48.980;8.138;2023-11-18T09:12:18;101026.89;;;7.77
34023;BMP280;20673;48.980;8.138;2023-11-18T09:14:45;101018.92;;;7.86
34023;BMP280;20673;48.980;8.138;2023-11-18T09:17:13;101026.50;;;7.98
34023;BMP280;20673;48.980;8.138;2023-11-18T09:19:40;101034.61;;;8.07
34023;BMP280;20673;48.980;8.138;2023-11-18T09:22:06;101031.11;;;8.25
34023;BMP280;20673;48.980;8.138;2023-11-18T09:24:32;101028.27;;;8.31
34023;BMP280;20673;48.980;8.138;2023-11-18T09:26:59;101029.40;;;8.47
34023;BMP280;20673;48.980;8.138;2023-11-18T09:29:25;101031.15;;;8.54
34023;BMP280;20673;48.980;8.138;2023-11-18T09:31:51;101030.98;;;8.59
34023;BMP280;20673;48.980;8.138;2023-11-18T09:34:19;101032.68;;;8.59
34023;BMP280;20673;48.980;8.138;2023-11-18T09:36:47;101037.56;;;8.58
34023;BMP280;20673;48.980;8.138;2023-11-18T09:39:14;101039.00;;;8.64
34023;BMP280;20673;48.980;8.138;2023-11-18T09:41:42;101037.06;;;8.63
34023;BMP280;20673;48.980;8.138;2023-11-18T09:44:09;101043.31;;;8.66
34023;BMP280;20673;48.980;8.138;2023-11-18T09:46:41;101055.45;;;8.62
34023;BMP280;20673;48.980;8.138;2023-11-18T09:51:45;101058.86;;;8.73
34023;BMP280;20673;48.980;8.138;2023-11-18T09:57:16;101048.50;;;8.69
34023;BMP280;20673;48.980;8.138;2023-11-18T10:00:07;101045.67;;;8.62
34023;BMP280;20673;48.980;8.138;2023-11-18T10:02:53;101051.82;;;8.67
34023;BMP280;20673;48.980;8.138;2023-11-18T10:05:22;101053.83;;;8.68
34023;BMP280;20673;48.980;8.138;2023-11-18T10:07:50;101050.83;;;8.73
34023;BMP280;20673;48.980;8.138;2023-11-18T10:10:17;101054.51;;;8.68
34023;BMP280;20673;48.980;8.138;2023-11-18T10:12:51;101053.29;;;8.68
34023;BMP280;20673;48.980;8.138;2023-11-18T10:15:22;101041.12;;;8.73
34023;BMP280;20673;48.980;8.138;2023-11-18T10:17:51;101044.56;;;8.74
34023;BMP280;20673;48.980;8.138;2023-11-18T10:20:45;101042.00;;;8.75
34023;BMP280;20673;48.980;8.138;2023-11-18T10:23:15;101043.18;;;8.75
34023;BMP280;20673;48.980;8.138;2023-11-18T10:25:51;101045.43;;;8.75
34023;BMP280;20673;48.980;8.138;2023-11-18T10:28:33;101041.34;;;8.68
34023;BMP280;20673;48.980;8.138;2023-11-18T10:31:06;101039.68;;;8.68
34023;BMP280;20673;48.980;8.138;2023-11-18T10:33:38;101047.11;;;8.72
34023;BMP280;20673;48.980;8.138;2023-11-18T10:36:19;101045.81;;;8.68
34023;BMP280;20673;48.980;8.138;2023-11-18T10:38:52;101044.22;;;8.63
34023;BMP280;20673;48.980;8.138;2023-11-18T10:41:20;101043.02;;;8.68
34023;BMP280;20673;48.980;8.138;2023-11-18T10:43:47;101038.50;;;8.66
34023;BMP280;20673;48.980;8.138;2023-11-18T10:46:16;101030.30;;;8.61
34023;BMP280;20673;48.980;8.138;2023-11-18T10:48:47;101021.43;;;8.64
34023;BMP280;20673;48.980;8.138;2023-11-18T10:51:18;101019.62;;;8.59
34023;BMP280;20673;48.980;8.138;2023-11-18T10:53:52;101029.06;;;8.61
34023;BMP280;20673;48.980;8.138;2023-11-18T10:56:27;101029.58;;;8.66
34023;BMP280;20673;48.980;8.138;2023-11-18T10:58:59;101024.64;;;8.63
34023;BMP280;20673;48.980;8.138;2023-11-18T11:01:37;101021.46;;;8.66
34023;BMP280;20673;48.980;8.138;2023-11-18T11:04:15;101018.83;;;8.68
34023;BMP280;20673;48.980;8.138;2023-11-18T11:06:50;101015.45;;;8.70
34023;BMP280;20673;48.980;8.138;2023-11-18T11:09:20;101014.58;;;8.66
34023;BMP280;20673;48.980;8.138;2023-11-18T11:11:56;101002.20;;;8.65
34023;BMP280;20673;48.980;8.138;2023-11-18T11:14:27;100998.74;;;8.64
34023;BMP280;20673;48.980;8.138;2023-11-18T11:17:00;100992.79;;;8.63
34023;BMP280;20673;48.980;8.138;2023-11-18T11:19:46;100982.93;;;8.66
34023;BMP280;20673;48.980;8.138;2023-11-18T11:22:17;100980.17;;;8.69
34023;BMP280;20673;48.980;8.138;2023-11-18T11:25:14;100972.56;;;8.68
34023;BMP280;20673;48.980;8.138;2023-11-18T11:27:55;100966.55;;;8.73
34023;BMP280;20673;48.980;8.138;2023-11-18T11:30:46;100958.38;;;8.74
34023;BMP280;20673;48.980;8.138;2023-11-18T11:35:56;100941.83;;;8.77
34023;BMP280;20673;48.980;8.138;2023-11-18T11:38:25;100945.15;;;8.82
34023;BMP280;20673;48.980;8.138;2023-11-18T11:40:54;100936.37;;;8.82
34023;BMP280;20673;48.980;8.138;2023-11-18T11:43:21;100940.75;;;8.84
34023;BMP280;20673;48.980;8.138;2023-11-18T11:45:52;100941.56;;;8.86
34023;BMP280;20673;48.980;8.138;2023-11-18T11:48:22;100937.92;;;8.86
34023;BMP280;20673;48.980;8.138;2023-11-18T11:51:29;100935.81;;;8.85
34023;BMP280;20673;48.980;8.138;2023-11-18T11:54:03;100934.06;;;8.87
34023;BMP280;20673;48.980;8.138;2023-11-18T11:56:41;100930.90;;;8.86
34023;BMP280;20673;48.980;8.138;2023-11-18T11:59:07;100934.15;;;8.85
34023;BMP280;20673;48.980;8.138;2023-11-18T12:01:36;100932.46;;;8.88
34023;BMP280;20673;48.980;8.138;2023-11-18T12:04:05;100915.09;;;8.89
34023;BMP280;20673;48.980;8.138;2023-11-18T12:06:33;100916.36;;;8.93
34023;BMP280;20673;48.980;8.138;2023-11-18T12:09:03;100908.37;;;8.94
34023;BMP280;20673;48.980;8.138;2023-11-18T12:11:38;100912.17;;;8.94
34023;BMP280;20673;48.980;8.138;2023-11-18T12:14:09;100903.09;;;9.00
34023;BMP280;20673;48.980;8.138;2023-11-18T12:17:06;100911.55;;;9.02
34023;BMP280;20673;48.980;8.138;2023-11-18T12:19:41;100902.29;;;9.07
34023;BMP280;20673;48.980;8.138;2023-11-18T12:22:18;100903.11;;;9.11
34023;BMP280;20673;48.980;8.138;2023-11-18T12:27:44;100897.41;;;9.15
34023;BMP280;20673;48.980;8.138;2023-11-18T12:33:05;100887.53;;;9.18
34023;BMP280;20673;48.980;8.138;2023-11-18T12:41:40;100865.70;;;9.19
34023;BMP280;20673;48.980;8.138;2023-11-18T12:44:30;100846.89;;;9.22
34023;BMP280;20673;48.980;8.138;2023-11-18T12:47:00;100827.56;;;9.22
34023;BMP280;20673;48.980;8.138;2023-11-18T12:49:38;100824.36;;;9.21
34023;BMP280;20673;48.980;8.138;2023-11-18T12:52:09;100819.31;;;9.16
34023;BMP280;20673;48.980;8.138;2023-11-18T12:54:36;100839.25;;;9.21
34023;BMP280;20673;48.980;8.138;2023-11-18T12:57:04;100833.12;;;9.21
34023;BMP280;20673;48.980;8.138;2023-11-18T12:59:34;100829.70;;;9.25
34023;BMP280;20673;48.980;8.138;2023-11-18T13:02:00;100830.12;;;9.27
34023;BMP280;20673;48.980;8.138;2023-11-18T13:04:28;100827.15;;;9.27
34023;BMP280;20673;48.980;8.138;2023-11-18T13:06:54;100815.39;;;9.28
34023;BMP280;20673;48.980;8.138;2023-11-18T13:09:23;100810.93;;;9.33
34023;BMP280;20673;48.980;8.138;2023-11-18T13:11:57;100808.53;;;9.34
34023;BMP280;20673;48.980;8.138;2023-11-18T13:14:27;100802.31;;;9.34
34023;BMP280;20673;48.980;8.138;2023-11-18T13:16:54;100805.40;;;9.42
34023;BMP280;20673;48.980;8.138;2023-11-18T13:19:27;100797.90;;;9.41
34023;BMP280;20673;48.980;8.138;2023-11-18T13:21:58;100784.42;;;9.47
34023;BMP280;20673;48.980;8.138;2023-11-18T13:24:26;100777.15;;;9.51
34023;BMP280;20673;48.980;8.138;2023-11-18T13:26:57;100774.70;;;9.56
34023;BMP280;20673;48.980;8.138;2023-11-18T13:29:24;100772.87;;;9.53
34023;BMP280;20673;48.980;8.138;2023-11-18T13:31:53;100759.36;;;9.61
34023;BMP280;20673;48.980;8.138;2023-11-18T13:34:20;100748.33;;;9.63
34023;BMP280;20673;48.980;8.138;2023-11-18T13:36:49;100740.39;;;9.65
34023;BMP280;20673;48.980;8.138;2023-11-18T13:39:20;100736.43;;;9.68
34023;BMP280;20673;48.980;8.138;2023-11-18T13:41:49;100729.98;;;9.70
34023;BMP280;20673;48.980;8.138;2023-11-18T13:44:37;100731.92;;;9.78
34023;BMP280;20673;48.980;8.138;2023-11-18T13:47:10;100727.47;;;9.78
34023;BMP280;20673;48.980;8.138;2023-11-18T13:49:40;100732.19;;;9.80
34023;BMP280;20673;48.980;8.138;2023-11-18T13:52:06;100725.69;;;9.82
34023;BMP280;20673;48.980;8.138;2023-11-18T13:54:35;100714.01;;;9.81
34023;BMP280;20673;48.980;8.138;2023-11-18T13:57:03;100708.07;;;9.76
34023;BMP280;20673;48.980;8.138;2023-11-18T13:59:30;100710.56;;;9.76
34023;BMP280;20673;48.980;8.138;2023-11-18T14:01:58;100709.20;;;9.78
34023;BMP280;20673;48.980;8.138;2023-11-18T14:04:28;100698.91;;;9.80
34023;BMP280;20673;48.980;8.138;2023-11-18T14:07:00;100692.51;;;9.80
34023;BMP280;20673;48.980;8.138;2023-11-18T14:09:37;100698.61;;;9.81
34023;BMP280;20673;48.980;8.138;2023-11-18T14:12:08;100705.29;;;9.82
34023;BMP280;20673;48.980;8.138;2023-11-18T14:14:34;100707.12;;;9.85
34023;BMP280;20673;48.980;8.138;2023-11-18T14:17:01;100707.15;;;9.86
34023;BMP280;20673;48.980;8.138;2023-11-18T14:19:28;100700.62;;;9.89
34023;BMP280;20673;48.980;8.138;2023-11-18T14:21:55;100695.92;;;9.88
34023;BMP280;20673;48.980;8.138;2023-11-18T14:24:22;100687.56;;;9.89
34023;BMP280;20673;48.980;8.138;2023-11-18T14:26:55;100695.81;;;9.86
34023;BMP280;20673;48.980;8.138;2023-11-18T14:29:22;100699.62;;;9.87
34023;BMP280;20673;48.980;8.138;2023-11-18T14:31:49;100694.78;;;9.86
34023;BMP280;20673;48.980;8.138;2023-11-18T14:34:16;100700.37;;;9.84
34023;BMP280;20673;48.980;8.138;2023-11-18T14:36:44;100703.76;;;9.75
34023;BMP280;20673;48.980;8.138;2023-11-18T14:39:10;100708.07;;;9.76
34023;BMP280;20673;48.980;8.138;2023-11-18T14:41:39;100716.06;;;9.73